CKU weather

Cordova Municipal Airport
Cordova, Alaska, United States

Public forecast

Using degrees Fahrenheit for public forecast. Weather courtesy of forecast.io.

METAR (pilot weather report)

Closest report is Merle K (Mudhole) Smith Airport, 8.0 nm (14.8 km) ESE. Retrieved 2019/05/27 12:53 UTC (40 minutes ago):

PACV 271253Z 00000KT 10SM -RA OVC025 08/07 A2996 RMK AO2 RAE15B34 SLP145 P0000 T00830072 $

TAF (pilot weather forecast)

Closest forecast is Merle K (Mudhole) Smith Airport, 8.0 nm (14.8 km) ESE. Retrieved 2019/05/27 12:30 UTC (1 hour ago):

TAF PACV 271128Z 2712/2812 09005KT 5SM -SHRA BR BKN025 FM271800 VRB04KT P6SM -SHRA OVC025 FM280000 VRB04KT P6SM VCSH SCT025 BKN040 FM280600 00000KT P6SM OVC050